Terminal Aerodrome Forecast
Issued by NWS

Home | Current Version | Previous Version | Text Only | Print | Product List | Glossary On
Versions: 1 2 3 4 5 6 7 8 9 10 11 12 13 14 15 16 17 18 19 20 21 22 23 24 25 26 27
568
FTUS43 KGRB 200525
TAFMTW
TAF
KMTW 200525Z 2006/2106 VRB03KT 1/4SM FG OVC002
      TEMPO 2008/2012 1/2SM -RA FG OVC003
     FM201200 06003KT 3/4SM -RA BR OVC003
     FM201700 07006KT 3SM BR SCT004 OVC030
     FM202300 09003KT 5SM BR SCT004 BKN012=

USA.gov is the U.S. government's official web portal to all federal, state and local government web resources and services.